createdAt,value
2023-03-18T00:04:46.895Z,12.86
2023-03-18T00:09:50.815Z,12.92
2023-03-18T00:14:54.099Z,12.86
2023-03-18T00:20:05.792Z,12.96
2023-03-18T00:25:10.954Z,13.04
2023-03-18T00:30:15.088Z,12.94
2023-03-18T00:35:19.997Z,12.91
2023-03-18T00:40:30.254Z,12.89
2023-03-18T00:45:33.660Z,12.80
2023-03-18T00:50:38.715Z,12.88
2023-03-18T00:55:42.393Z,12.89
2023-03-18T01:00:46.003Z,12.90
2023-03-18T01:05:51.447Z,12.91
2023-03-18T01:10:54.786Z,12.96
2023-03-18T01:15:58.080Z,12.96
2023-03-18T01:21:02.808Z,12.98
2023-03-18T01:26:07.091Z,13.02
2023-03-18T01:31:10.860Z,12.98
2023-03-18T01:36:15.805Z,13.00
2023-03-18T01:41:18.950Z,13.01
2023-03-18T01:46:34.724Z,12.99
2023-03-18T01:51:41.976Z,12.98
2023-03-18T01:56:47.598Z,13.04
2023-03-18T02:01:55.257Z,13.06
2023-03-18T02:07:01.528Z,13.02
2023-03-18T02:12:04.863Z,12.93
2023-03-18T02:17:12.332Z,12.86
2023-03-18T02:22:25.007Z,12.79
2023-03-18T02:27:32.958Z,12.63
2023-03-18T02:32:37.200Z,12.64
2023-03-18T02:37:40.674Z,12.72
2023-03-18T02:42:46.138Z,12.78
2023-03-18T02:47:50.309Z,12.74
2023-03-18T02:52:53.452Z,12.60
2023-03-18T02:57:58.074Z,12.53
2023-03-18T03:03:02.017Z,12.45
2023-03-18T03:08:05.933Z,12.57
2023-03-18T03:13:11.790Z,12.59
2023-03-18T03:18:15.675Z,12.65
2023-03-18T03:23:18.962Z,12.59
2023-03-18T03:28:23.620Z,12.51
2023-03-18T03:33:27.958Z,12.58
2023-03-18T03:38:31.169Z,12.57
2023-03-18T03:43:35.837Z,12.58
2023-03-18T03:48:39.656Z,12.73
2023-03-18T03:53:43.796Z,12.59
2023-03-18T03:58:48.581Z,12.70
2023-03-18T04:03:51.890Z,12.74
2023-03-18T04:08:55.568Z,12.74
2023-03-18T04:14:00.304Z,12.74
2023-03-18T04:19:03.584Z,12.73
2023-03-18T04:24:07.765Z,12.68
2023-03-18T04:29:12.592Z,12.64
2023-03-18T04:34:15.916Z,12.75
2023-03-18T04:39:19.430Z,12.79
2023-03-18T04:44:24.455Z,12.76
2023-03-18T04:49:27.392Z,12.70
2023-03-18T04:54:30.658Z,12.60
2023-03-18T04:59:35.472Z,12.63
2023-03-18T05:04:39.284Z,12.62
2023-03-18T05:09:43.839Z,12.44
2023-03-18T05:14:48.698Z,12.35
2023-03-18T05:19:52.066Z,12.47
2023-03-18T05:24:56.042Z,12.37
2023-03-18T05:30:01.267Z,12.45
2023-03-18T05:35:05.784Z,12.41
2023-03-18T05:40:11.849Z,12.50
2023-03-18T05:45:16.563Z,12.55
2023-03-18T05:50:29.159Z,12.56
2023-03-18T05:55:33.121Z,12.64
2023-03-18T06:00:38.565Z,12.54
2023-03-18T06:05:42.331Z,12.69
2023-03-18T06:10:45.810Z,12.72
2023-03-18T06:15:50.475Z,12.69
2023-03-18T06:20:53.810Z,12.59
2023-03-18T06:25:57.350Z,12.62
2023-03-18T06:31:02.879Z,12.60
2023-03-18T06:36:07.069Z,12.65
2023-03-18T06:41:10.471Z,12.69
2023-03-18T06:46:15.638Z,12.63
2023-03-18T06:51:18.852Z,12.53
2023-03-18T06:56:22.383Z,12.42
2023-03-18T07:01:27.139Z,12.51
2023-03-18T07:06:31.951Z,12.59
2023-03-18T07:11:35.195Z,12.58
2023-03-18T07:16:39.809Z,12.67
2023-03-18T07:21:43.959Z,12.77
2023-03-18T07:26:47.443Z,12.85
2023-03-18T07:31:52.050Z,12.87
2023-03-18T07:36:55.310Z,12.77
2023-03-18T07:41:58.546Z,12.74
2023-03-18T07:47:03.764Z,12.80
2023-03-18T07:52:07.235Z,12.98
2023-03-18T07:57:11.752Z,13.06
2023-03-18T08:02:17.195Z,13.03
2023-03-18T08:07:20.330Z,13.15
2023-03-18T08:12:23.754Z,13.14
2023-03-18T08:17:28.527Z,13.28
2023-03-18T08:22:31.840Z,13.27
2023-03-18T08:27:35.250Z,13.38
2023-03-18T08:32:39.897Z,13.34
2023-03-18T08:37:43.179Z,13.36
2023-03-18T08:42:47.150Z,13.29
2023-03-18T08:47:51.764Z,13.27
2023-03-18T08:52:55.137Z,13.39
2023-03-18T08:57:58.900Z,13.51
2023-03-18T09:03:03.826Z,13.49
2023-03-18T09:08:07.243Z,13.49
2023-03-18T09:13:10.406Z,13.65
2023-03-18T09:18:15.121Z,13.61
2023-03-18T09:23:18.799Z,13.51
2023-03-18T09:28:22.349Z,13.67
2023-03-18T09:33:26.988Z,13.95
2023-03-18T09:38:30.237Z,14.24
2023-03-18T09:43:57.520Z,14.33
2023-03-18T09:49:29.979Z,14.40
2023-03-18T09:54:39.505Z,14.17
2023-03-18T09:59:47.073Z,14.05
2023-03-18T10:04:56.318Z,14.09
2023-03-18T10:10:03.910Z,14.25
2023-03-18T10:15:16.536Z,14.59
2023-03-18T10:20:28.901Z,14.76
2023-03-18T10:25:37.672Z,15.40
2023-03-18T10:30:55.123Z,17.77
2023-03-18T10:36:06.672Z,17.46
2023-03-18T10:41:17.851Z,17.71
2023-03-18T10:46:23.198Z,17.98
2023-03-18T10:51:36.440Z,18.79
2023-03-18T10:56:39.853Z,17.88
2023-03-18T11:01:45.791Z,17.08
2023-03-18T11:06:54.473Z,16.40
2023-03-18T11:12:00.142Z,16.28
2023-03-18T11:17:05.367Z,15.87
2023-03-18T11:22:20.582Z,15.36
2023-03-18T11:27:28.079Z,15.44
2023-03-18T11:32:34.343Z,15.57
2023-03-18T11:37:41.475Z,16.87
2023-03-18T11:42:45.580Z,19.41
2023-03-18T11:47:49.399Z,19.99
2023-03-18T11:53:00.843Z,20.16
2023-03-18T11:58:36.706Z,19.93
2023-03-18T12:03:59.806Z,18.63
2023-03-18T12:09:11.044Z,17.32
2023-03-18T12:14:21.484Z,17.58
2023-03-18T12:19:42.542Z,17.82
2023-03-18T12:25:03.718Z,18.36
2023-03-18T12:30:23.113Z,18.05
2023-03-18T12:35:39.413Z,17.35
2023-03-18T12:41:01.114Z,16.16
2023-03-18T12:46:12.176Z,15.77
2023-03-18T12:51:19.716Z,16.61
2023-03-18T12:56:27.632Z,16.68
2023-03-18T13:01:39.052Z,16.41
2023-03-18T13:06:45.814Z,18.63
2023-03-18T13:12:01.989Z,19.62
2023-03-18T13:17:05.852Z,19.63
2023-03-18T13:22:25.357Z,18.87
2023-03-18T13:27:45.611Z,18.63
2023-03-18T13:33:03.461Z,17.48
2023-03-18T13:38:28.096Z,17.39
2023-03-18T13:43:35.101Z,17.11
2023-03-18T13:48:41.972Z,17.46
2023-03-18T13:53:45.437Z,17.70
2023-03-18T13:58:52.596Z,17.98
2023-03-18T14:03:58.386Z,17.15
2023-03-18T14:09:36.148Z,17.39
2023-03-18T14:15:02.746Z,18.24
2023-03-18T14:20:23.888Z,17.61
2023-03-18T14:25:42.220Z,19.44
2023-03-18T14:30:50.176Z,20.08
2023-03-18T14:35:58.417Z,19.73
2023-03-18T14:41:04.672Z,20.58
2023-03-18T14:46:19.057Z,21.15
2023-03-18T14:51:23.796Z,21.05
2023-03-18T14:56:31.246Z,20.15
2023-03-18T15:01:39.099Z,20.78
2023-03-18T15:06:43.176Z,20.23
2023-03-18T15:11:47.912Z,19.40
2023-03-18T15:16:54.812Z,18.47
2023-03-18T15:22:03.523Z,18.66
2023-03-18T15:27:12.617Z,18.59
2023-03-18T15:32:21.420Z,18.06
2023-03-18T15:37:42.533Z,18.37
2023-03-18T15:42:46.202Z,18.46
2023-03-18T15:47:50.799Z,18.28
2023-03-18T15:53:02.944Z,18.54
2023-03-18T15:58:19.472Z,18.30
2023-03-18T16:03:26.109Z,17.97
2023-03-18T16:08:29.591Z,17.49
2023-03-18T16:13:35.848Z,17.59
2023-03-18T16:18:40.636Z,17.75
2023-03-18T16:23:43.796Z,17.51
2023-03-18T16:28:48.631Z,17.34
2023-03-18T16:33:56.341Z,17.16
2023-03-18T16:38:59.608Z,17.42
2023-03-18T16:44:03.271Z,17.25
2023-03-18T16:49:07.856Z,17.17
2023-03-18T16:54:19.136Z,16.96
2023-03-18T16:59:23.382Z,16.87
2023-03-18T17:04:30.202Z,17.05
2023-03-18T17:09:33.741Z,16.97
2023-03-18T17:14:39.973Z,16.82
2023-03-18T17:19:44.899Z,16.87
2023-03-18T17:24:48.321Z,16.68
2023-03-18T17:29:51.531Z,16.61
2023-03-18T17:34:56.477Z,16.57
2023-03-18T17:39:59.668Z,16.51
2023-03-18T17:45:07.587Z,16.39
2023-03-18T17:50:15.192Z,16.26
2023-03-18T17:55:22.570Z,16.05
2023-03-18T18:00:27.651Z,15.98
2023-03-18T18:05:32.603Z,16.05
2023-03-18T18:10:35.959Z,16.07
2023-03-18T18:15:39.205Z,15.96
2023-03-18T18:20:43.898Z,15.89
2023-03-18T18:25:47.064Z,15.62
2023-03-18T18:30:50.513Z,15.55
2023-03-18T18:35:55.778Z,15.48
2023-03-18T18:41:00.430Z,15.41
2023-03-18T18:46:03.769Z,15.36
2023-03-18T18:51:15.667Z,15.39
2023-03-18T18:56:23.184Z,15.31
2023-03-18T19:01:26.416Z,15.29
2023-03-18T19:06:32.754Z,15.21
2023-03-18T19:11:37.068Z,15.11
2023-03-18T19:16:40.233Z,14.97
2023-03-18T19:21:44.962Z,14.86
2023-03-18T19:26:48.133Z,14.88
2023-03-18T19:31:51.772Z,15.01
2023-03-18T19:36:56.926Z,15.02
2023-03-18T19:42:00.192Z,15.09
2023-03-18T19:47:04.261Z,14.88
2023-03-18T19:52:17.728Z,14.79
2023-03-18T19:57:24.484Z,14.78
2023-03-18T20:02:29.734Z,14.73
2023-03-18T20:07:34.298Z,14.84
2023-03-18T20:12:39.361Z,14.74
2023-03-18T20:17:43.998Z,14.72
2023-03-18T20:22:52.531Z,14.58
2023-03-18T20:27:56.835Z,14.51
2023-03-18T20:33:00.713Z,14.49
2023-03-18T20:38:11.934Z,14.49
2023-03-18T20:43:16.736Z,14.49
2023-03-18T20:48:20.030Z,14.46
2023-03-18T20:53:27.524Z,14.39
2023-03-18T20:58:30.879Z,14.33
2023-03-18T21:03:36.096Z,14.30
2023-03-18T21:08:41.262Z,14.23
2023-03-18T21:13:44.553Z,14.28
2023-03-18T21:18:48.490Z,14.23
2023-03-18T21:23:54.840Z,14.15
2023-03-18T21:28:58.826Z,14.12
2023-03-18T21:34:02.469Z,14.11
2023-03-18T21:39:07.576Z,14.11
2023-03-18T21:44:12.677Z,14.04
2023-03-18T21:49:16.287Z,13.84
2023-03-18T21:54:21.113Z,13.81
2023-03-18T21:59:24.404Z,13.87
2023-03-18T22:04:27.685Z,13.64
2023-03-18T22:09:32.369Z,13.47
2023-03-18T22:14:35.642Z,13.44
2023-03-18T22:19:38.844Z,13.34
2023-03-18T22:24:43.555Z,13.37
2023-03-18T22:29:47.196Z,13.44
2023-03-18T22:34:50.636Z,13.64
2023-03-18T22:39:55.348Z,13.61
2023-03-18T22:44:58.609Z,13.58
2023-03-18T22:50:01.825Z,13.61
2023-03-18T22:55:18.108Z,13.67
2023-03-18T23:00:26.234Z,13.73
2023-03-18T23:05:29.601Z,13.79
2023-03-18T23:10:34.500Z,13.65
2023-03-18T23:15:37.729Z,13.77
2023-03-18T23:20:41.055Z,13.86
2023-03-18T23:25:47.287Z,13.84
2023-03-18T23:30:52.723Z,13.91
2023-03-18T23:35:55.961Z,13.96
2023-03-18T23:41:00.530Z,13.96
2023-03-18T23:46:03.946Z,13.99
2023-03-18T23:51:07.489Z,14.02
2023-03-18T23:56:13.958Z,14.01
